createdAt,value
2023-05-25T00:01:02.546Z,90.13
2023-05-25T00:03:31.397Z,89.08
2023-05-25T00:05:58.841Z,88.46
2023-05-25T00:08:25.376Z,88.62
2023-05-25T00:10:52.039Z,89.25
2023-05-25T00:13:18.595Z,89.46
2023-05-25T00:15:45.464Z,90.26
2023-05-25T00:18:13.068Z,91.38
2023-05-25T00:20:39.711Z,90.41
2023-05-25T00:23:06.363Z,91.43
2023-05-25T00:25:32.891Z,92.66
2023-05-25T00:27:59.362Z,91.61
2023-05-25T00:30:26.015Z,91.83
2023-05-25T00:32:54.024Z,91.92
2023-05-25T00:35:20.660Z,91.63
2023-05-25T00:37:47.586Z,91.66
2023-05-25T00:40:16.551Z,91.80
2023-05-25T00:42:43.989Z,91.57
2023-05-25T00:45:11.282Z,92.33
2023-05-25T00:47:39.652Z,93.27
2023-05-25T00:50:10.152Z,91.88
2023-05-25T00:52:36.826Z,94.12
2023-05-25T00:55:04.226Z,93.83
2023-05-25T00:57:34.147Z,94.42
2023-05-25T01:00:02.323Z,94.93
2023-05-25T01:02:29.587Z,94.00
2023-05-25T01:05:00.998Z,94.32
2023-05-25T01:07:27.873Z,94.23
2023-05-25T01:09:58.636Z,95.21
2023-05-25T01:12:28.915Z,94.28
2023-05-25T01:14:56.007Z,94.08
2023-05-25T01:17:26.548Z,94.13
2023-05-25T01:20:08.989Z,94.73
2023-05-25T01:22:43.110Z,93.93
2023-05-25T01:25:22.608Z,94.00
2023-05-25T01:27:57.153Z,94.98
2023-05-25T01:30:26.369Z,96.39
2023-05-25T01:32:54.454Z,94.88
2023-05-25T01:35:21.810Z,95.56
2023-05-25T01:37:51.620Z,96.42
2023-05-25T01:40:18.122Z,96.73
2023-05-25T01:42:44.673Z,95.47
2023-05-25T01:45:13.425Z,95.08
2023-05-25T01:48:03.444Z,95.67
2023-05-25T01:50:40.776Z,96.30
2023-05-25T01:53:13.634Z,96.25
2023-05-25T01:55:49.959Z,96.45
2023-05-25T01:58:18.425Z,98.93
2023-05-25T02:00:48.080Z,98.43
2023-05-25T02:03:15.321Z,99.37
2023-05-25T02:05:42.405Z,98.83
2023-05-25T02:08:09.138Z,99.77
2023-05-25T02:10:35.709Z,100.00
2023-05-25T02:13:02.268Z,100.00
2023-05-25T02:15:32.971Z,100.00
2023-05-25T02:18:00.979Z,100.00
2023-05-25T02:20:30.711Z,100.00
2023-05-25T02:22:57.349Z,100.00
2023-05-25T02:25:23.831Z,100.00
2023-05-25T02:27:50.885Z,100.00
2023-05-25T02:30:18.162Z,100.00
2023-05-25T02:32:44.800Z,100.00
2023-05-25T02:35:12.369Z,100.00
2023-05-25T02:37:39.220Z,100.00
2023-05-25T02:40:07.970Z,100.00
2023-05-25T02:42:34.517Z,100.00
2023-05-25T02:45:01.126Z,100.00
2023-05-25T02:47:29.155Z,100.00
2023-05-25T02:49:55.756Z,100.00
2023-05-25T02:52:22.632Z,100.00
2023-05-25T02:54:49.385Z,100.00
2023-05-25T02:57:23.043Z,100.00
2023-05-25T02:59:51.077Z,100.00
2023-05-25T03:02:18.522Z,100.00
2023-05-25T03:04:46.042Z,100.00
2023-05-25T03:07:12.869Z,100.00
2023-05-25T03:09:39.645Z,100.00
2023-05-25T03:12:06.551Z,100.00
2023-05-25T03:14:33.176Z,100.00
2023-05-25T03:17:04.286Z,100.00
2023-05-25T03:19:32.332Z,100.00
2023-05-25T03:21:59.394Z,100.00
2023-05-25T03:24:26.980Z,100.00
2023-05-25T03:26:56.115Z,100.00
2023-05-25T03:29:22.761Z,100.00
2023-05-25T03:31:49.378Z,100.00
2023-05-25T03:34:17.678Z,100.00
2023-05-25T03:36:45.981Z,100.00
2023-05-25T03:39:13.661Z,100.00
2023-05-25T03:41:40.268Z,100.00
2023-05-25T03:44:07.688Z,100.00
2023-05-25T03:46:34.346Z,100.00
2023-05-25T03:49:00.985Z,100.00
2023-05-25T03:51:29.345Z,100.00
2023-05-25T03:53:56.040Z,100.00
2023-05-25T03:56:23.924Z,100.00
2023-05-25T03:58:50.431Z,100.00
2023-05-25T04:01:18.350Z,100.00
2023-05-25T04:03:44.978Z,100.00
2023-05-25T04:06:11.673Z,100.00
2023-05-25T04:08:40.942Z,100.00
2023-05-25T04:11:07.457Z,100.00
2023-05-25T04:13:36.303Z,100.00
2023-05-25T04:16:03.541Z,100.00
2023-05-25T04:18:32.312Z,100.00
2023-05-25T04:20:59.579Z,100.00
2023-05-25T04:23:26.790Z,100.00
2023-05-25T04:25:54.416Z,100.00
2023-05-25T04:28:20.933Z,100.00
2023-05-25T04:30:59.562Z,100.00
2023-05-25T04:33:38.684Z,100.00
2023-05-25T04:36:38.742Z,100.00
2023-05-25T04:39:07.361Z,100.00
2023-05-25T04:41:37.759Z,100.00
2023-05-25T04:44:10.561Z,100.00
2023-05-25T04:46:49.042Z,100.00
2023-05-25T04:49:21.664Z,100.00
2023-05-25T04:51:48.491Z,100.00
2023-05-25T04:54:15.801Z,100.00
2023-05-25T04:56:43.036Z,99.34
2023-05-25T04:59:09.795Z,98.00
2023-05-25T05:01:40.870Z,97.20
2023-05-25T05:04:09.010Z,96.12
2023-05-25T05:06:36.699Z,95.69
2023-05-25T05:09:03.703Z,94.36
2023-05-25T05:11:30.638Z,93.47
2023-05-25T05:13:59.236Z,92.01
2023-05-25T05:16:25.986Z,90.17
2023-05-25T05:18:53.285Z,84.51
2023-05-25T05:21:21.402Z,84.90
2023-05-25T05:23:49.591Z,85.34
2023-05-25T05:26:16.516Z,81.67
2023-05-25T05:28:43.084Z,79.93
2023-05-25T05:31:12.121Z,73.22
2023-05-25T05:33:39.500Z,67.13
2023-05-25T05:36:06.715Z,64.23
2023-05-25T05:38:38.792Z,62.15
2023-05-25T05:41:13.287Z,62.82
2023-05-25T05:43:42.388Z,60.08
2023-05-25T05:46:10.548Z,57.43
2023-05-25T05:48:37.971Z,58.02
2023-05-25T05:51:05.864Z,55.39
2023-05-25T05:53:33.705Z,57.07
2023-05-25T05:56:00.312Z,56.01
2023-05-25T05:58:26.899Z,55.20
2023-05-25T06:00:54.597Z,54.18
2023-05-25T06:03:21.635Z,52.06
2023-05-25T06:05:48.423Z,50.84
2023-05-25T06:08:16.098Z,49.62
2023-05-25T06:10:42.830Z,50.85
2023-05-25T06:13:09.487Z,51.13
2023-05-25T06:15:36.192Z,47.41
2023-05-25T06:18:07.858Z,46.46
2023-05-25T06:20:35.547Z,47.40
2023-05-25T06:23:02.395Z,48.53
2023-05-25T06:25:29.156Z,48.13
2023-05-25T06:27:57.310Z,48.50
2023-05-25T06:30:24.021Z,45.42
2023-05-25T06:32:51.969Z,45.95
2023-05-25T06:35:25.020Z,47.75
2023-05-25T06:37:52.822Z,46.75
2023-05-25T06:40:20.425Z,48.10
2023-05-25T06:42:47.054Z,44.50
2023-05-25T06:45:37.960Z,42.87
2023-05-25T06:48:05.333Z,44.80
2023-05-25T06:50:31.923Z,43.14
2023-05-25T06:53:00.336Z,43.84
2023-05-25T06:55:27.055Z,42.18
2023-05-25T06:57:53.602Z,42.24
2023-05-25T07:00:21.472Z,39.54
2023-05-25T07:02:48.068Z,40.53
2023-05-25T07:05:15.129Z,41.63
2023-05-25T07:07:41.819Z,38.54
2023-05-25T07:10:09.167Z,38.91
2023-05-25T07:12:35.748Z,37.69
2023-05-25T07:15:02.427Z,39.20
2023-05-25T07:17:28.989Z,38.84
2023-05-25T07:19:55.649Z,37.56
2023-05-25T07:22:23.645Z,37.90
2023-05-25T07:24:50.300Z,40.17
2023-05-25T07:27:16.936Z,35.96
2023-05-25T07:29:43.444Z,37.75
2023-05-25T07:32:09.938Z,35.57
2023-05-25T07:34:36.513Z,36.61
2023-05-25T07:37:03.107Z,35.04
2023-05-25T07:39:29.689Z,35.17
2023-05-25T07:41:56.177Z,36.78
2023-05-25T07:44:22.671Z,36.09
2023-05-25T07:46:49.226Z,34.93
2023-05-25T07:49:16.343Z,36.04
2023-05-25T07:51:44.733Z,35.34
2023-05-25T07:54:11.848Z,35.78
2023-05-25T07:56:38.963Z,33.76
2023-05-25T07:59:06.087Z,34.09
2023-05-25T08:01:32.593Z,33.88
2023-05-25T08:03:59.398Z,33.38
2023-05-25T08:06:26.065Z,33.06
2023-05-25T08:08:52.595Z,36.30
2023-05-25T08:11:23.954Z,37.08
2023-05-25T08:13:51.116Z,33.89
2023-05-25T08:16:18.874Z,34.49
2023-05-25T08:18:46.930Z,33.65
2023-05-25T08:21:13.814Z,33.41
2023-05-25T08:23:42.386Z,32.63
2023-05-25T08:26:25.975Z,32.87
2023-05-25T08:28:57.015Z,34.63
2023-05-25T08:31:23.628Z,35.31
2023-05-25T08:33:50.183Z,36.85
2023-05-25T08:36:16.701Z,36.91
2023-05-25T08:38:43.207Z,36.54
2023-05-25T08:41:12.018Z,37.08
2023-05-25T08:43:38.601Z,38.19
2023-05-25T08:46:07.054Z,38.07
2023-05-25T08:48:41.856Z,38.54
2023-05-25T08:51:11.677Z,38.13
2023-05-25T08:53:43.410Z,40.42
2023-05-25T08:56:34.248Z,39.66
2023-05-25T08:59:14.576Z,41.36
2023-05-25T09:01:46.012Z,42.13
2023-05-25T09:04:19.482Z,42.30
2023-05-25T09:06:57.180Z,41.71
2023-05-25T09:09:35.104Z,39.59
2023-05-25T09:12:02.417Z,39.11
2023-05-25T09:14:29.051Z,40.12
2023-05-25T09:16:55.654Z,40.03
2023-05-25T09:19:22.192Z,39.99
2023-05-25T09:21:49.394Z,40.86
2023-05-25T09:24:18.498Z,38.77
2023-05-25T09:26:48.796Z,41.52
2023-05-25T09:29:16.531Z,40.50
2023-05-25T09:31:43.388Z,40.65
2023-05-25T09:34:14.132Z,41.68
2023-05-25T09:36:41.925Z,42.34
2023-05-25T09:39:12.635Z,42.92
2023-05-25T09:41:43.210Z,41.91
2023-05-25T09:44:11.706Z,42.83
2023-05-25T09:46:39.301Z,40.44
2023-05-25T09:49:08.811Z,41.30
2023-05-25T09:51:36.629Z,41.53
2023-05-25T09:54:04.897Z,43.24
2023-05-25T09:56:33.510Z,41.47
2023-05-25T09:59:00.162Z,40.77
2023-05-25T10:01:27.313Z,41.69
2023-05-25T10:04:04.176Z,43.58
2023-05-25T10:06:33.437Z,43.33
2023-05-25T10:09:01.315Z,39.56
2023-05-25T10:11:29.232Z,39.12
2023-05-25T10:13:56.737Z,39.99
2023-05-25T10:16:29.272Z,40.66
2023-05-25T10:19:34.678Z,40.89
2023-05-25T10:22:19.974Z,41.17
2023-05-25T10:24:58.568Z,38.27
2023-05-25T10:27:29.450Z,37.20
2023-05-25T10:29:57.618Z,39.33
2023-05-25T10:32:24.830Z,38.67
2023-05-25T10:34:52.578Z,38.22
2023-05-25T10:37:19.661Z,36.96
2023-05-25T10:39:46.515Z,36.95
2023-05-25T10:42:13.295Z,34.79
2023-05-25T10:44:42.089Z,33.56
2023-05-25T10:47:09.456Z,35.27
2023-05-25T10:49:53.307Z,35.46
2023-05-25T10:52:20.470Z,35.42
2023-05-25T10:54:48.350Z,33.48
2023-05-25T10:57:20.459Z,32.50
2023-05-25T10:59:59.604Z,32.17
2023-05-25T11:02:29.938Z,32.29
2023-05-25T11:05:28.875Z,32.84
2023-05-25T11:07:57.046Z,32.03
2023-05-25T11:10:51.041Z,32.99
2023-05-25T11:13:41.303Z,33.36
2023-05-25T11:16:27.093Z,33.60
2023-05-25T11:18:57.883Z,34.06
2023-05-25T11:21:27.416Z,36.47
2023-05-25T11:24:06.672Z,36.33
2023-05-25T11:26:34.660Z,35.33
2023-05-25T11:29:12.020Z,35.19
2023-05-25T11:31:42.470Z,35.71
2023-05-25T11:34:12.211Z,31.89
2023-05-25T11:36:39.188Z,33.71
2023-05-25T11:39:11.445Z,31.92
2023-05-25T11:41:55.344Z,31.36
2023-05-25T11:44:33.618Z,31.43
2023-05-25T11:47:14.759Z,29.50
2023-05-25T11:49:42.392Z,27.82
2023-05-25T11:52:09.435Z,28.83
2023-05-25T11:54:36.482Z,27.49
2023-05-25T11:57:03.644Z,29.25
2023-05-25T11:59:32.403Z,28.57
2023-05-25T12:02:04.166Z,27.22
2023-05-25T12:04:34.891Z,28.40
2023-05-25T12:07:06.362Z,30.23
2023-05-25T12:09:33.582Z,31.03
2023-05-25T12:12:03.062Z,29.83
2023-05-25T12:14:30.180Z,30.28
2023-05-25T12:16:57.870Z,28.38
2023-05-25T12:19:24.637Z,29.76
2023-05-25T12:21:51.795Z,29.92
2023-05-25T12:24:19.085Z,31.13
2023-05-25T12:26:49.613Z,30.63
2023-05-25T12:29:16.545Z,29.23
2023-05-25T12:31:43.348Z,29.62
2023-05-25T12:34:18.079Z,29.30
2023-05-25T12:36:54.647Z,27.95
2023-05-25T12:39:24.639Z,27.25
2023-05-25T12:41:54.756Z,28.53
2023-05-25T12:44:28.778Z,30.24
2023-05-25T12:46:56.536Z,31.80
2023-05-25T12:49:34.275Z,30.31
2023-05-25T12:52:02.752Z,29.68
2023-05-25T12:54:46.452Z,30.60
2023-05-25T12:57:14.842Z,31.16
2023-05-25T12:59:43.595Z,33.04
2023-05-25T13:02:10.944Z,32.38
2023-05-25T13:04:39.402Z,34.56
2023-05-25T13:07:08.483Z,34.39
2023-05-25T13:09:35.191Z,36.26
2023-05-25T13:12:04.649Z,34.78
2023-05-25T13:14:31.260Z,37.29
2023-05-25T13:16:57.870Z,36.85
2023-05-25T13:19:25.822Z,37.51
2023-05-25T13:21:53.095Z,37.67
2023-05-25T13:24:19.756Z,36.17
2023-05-25T13:26:48.205Z,36.70
2023-05-25T13:29:16.532Z,36.81
2023-05-25T13:31:43.550Z,38.22
2023-05-25T13:34:10.245Z,37.54
2023-05-25T13:36:36.759Z,37.01
2023-05-25T13:39:05.232Z,37.79
2023-05-25T13:41:31.817Z,36.29
2023-05-25T13:43:58.363Z,36.50
2023-05-25T13:46:34.184Z,36.51
2023-05-25T13:49:02.015Z,38.73
2023-05-25T13:51:28.513Z,38.94
2023-05-25T13:53:55.047Z,37.88
2023-05-25T13:56:22.273Z,36.49
2023-05-25T13:58:48.794Z,38.51
2023-05-25T14:01:15.651Z,35.72
2023-05-25T14:03:42.687Z,37.76
2023-05-25T14:06:09.435Z,36.47
2023-05-25T14:08:35.977Z,37.21
2023-05-25T14:11:02.980Z,35.91
2023-05-25T14:13:29.953Z,37.22
2023-05-25T14:15:56.644Z,36.51
2023-05-25T14:18:23.292Z,35.68
2023-05-25T14:20:50.013Z,36.82
2023-05-25T14:23:18.426Z,36.60
2023-05-25T14:25:46.609Z,35.42
2023-05-25T14:28:13.496Z,35.54
2023-05-25T14:30:40.103Z,35.80
2023-05-25T14:33:06.726Z,35.16
2023-05-25T14:35:33.312Z,35.83
2023-05-25T14:37:59.909Z,35.70
2023-05-25T14:40:26.516Z,36.93
2023-05-25T14:42:55.487Z,35.06
2023-05-25T14:45:22.148Z,36.42
2023-05-25T14:47:49.055Z,36.15
2023-05-25T14:50:15.956Z,35.52
2023-05-25T14:52:42.985Z,35.79
2023-05-25T14:55:09.891Z,35.17
2023-05-25T14:57:36.712Z,34.83
2023-05-25T15:00:04.412Z,35.68
2023-05-25T15:02:31.187Z,37.44
2023-05-25T15:04:58.585Z,36.56
2023-05-25T15:07:25.239Z,36.35
2023-05-25T15:09:51.863Z,36.16
2023-05-25T15:12:18.383Z,37.37
2023-05-25T15:14:44.869Z,37.90
2023-05-25T15:17:11.452Z,35.27
2023-05-25T15:19:38.005Z,35.47
2023-05-25T15:22:04.813Z,35.57
2023-05-25T15:24:31.492Z,36.87
2023-05-25T15:26:58.097Z,37.13
2023-05-25T15:29:24.692Z,37.42
2023-05-25T15:31:53.627Z,39.85
2023-05-25T15:34:21.577Z,36.75
2023-05-25T15:36:48.472Z,36.39
2023-05-25T15:39:15.591Z,37.18
2023-05-25T15:41:43.008Z,37.22
2023-05-25T15:44:12.577Z,36.64
2023-05-25T15:46:40.452Z,35.74
2023-05-25T15:49:11.258Z,36.89
2023-05-25T15:51:41.431Z,37.41
2023-05-25T15:54:10.475Z,36.34
2023-05-25T15:56:38.599Z,36.18
2023-05-25T15:59:05.863Z,35.73
2023-05-25T16:01:34.474Z,36.09
2023-05-25T16:04:01.457Z,36.73
2023-05-25T16:06:28.103Z,37.32
2023-05-25T16:08:54.776Z,37.40
2023-05-25T16:11:22.133Z,37.08
2023-05-25T16:13:48.611Z,37.46
2023-05-25T16:16:15.355Z,37.51
2023-05-25T16:18:41.957Z,36.46
2023-05-25T16:21:08.492Z,38.40
2023-05-25T16:23:35.017Z,36.90
2023-05-25T16:26:01.540Z,37.75
2023-05-25T16:28:28.072Z,38.18
2023-05-25T16:30:54.652Z,37.53
2023-05-25T16:33:21.147Z,38.62
2023-05-25T16:35:47.803Z,37.90
2023-05-25T16:38:14.316Z,36.33
2023-05-25T16:40:40.864Z,37.55
2023-05-25T16:43:07.457Z,36.73
2023-05-25T16:45:34.376Z,36.19
2023-05-25T16:48:00.913Z,37.47
2023-05-25T16:50:27.445Z,37.30
2023-05-25T16:52:53.992Z,36.19
2023-05-25T16:55:21.296Z,37.05
2023-05-25T16:57:47.874Z,38.32
2023-05-25T17:00:14.957Z,37.10
2023-05-25T17:02:42.592Z,38.50
2023-05-25T17:05:09.767Z,38.20
2023-05-25T17:07:37.561Z,38.53
2023-05-25T17:10:04.554Z,39.14
2023-05-25T17:12:31.411Z,38.20
2023-05-25T17:14:57.897Z,38.04
2023-05-25T17:17:27.946Z,40.06
2023-05-25T17:19:54.875Z,38.39
2023-05-25T17:22:21.599Z,38.99
2023-05-25T17:24:48.112Z,39.75
2023-05-25T17:27:14.646Z,39.59
2023-05-25T17:29:41.957Z,38.85
2023-05-25T17:32:11.146Z,38.70
2023-05-25T17:34:37.776Z,39.41
2023-05-25T17:37:04.530Z,39.59
2023-05-25T17:39:31.496Z,39.49
2023-05-25T17:41:58.326Z,39.81
2023-05-25T17:44:26.014Z,39.06
2023-05-25T17:46:52.676Z,40.23
2023-05-25T17:49:19.276Z,40.16
2023-05-25T17:51:46.060Z,40.67
2023-05-25T17:54:18.595Z,41.83
2023-05-25T17:56:46.409Z,43.05
2023-05-25T17:59:13.213Z,41.59
2023-05-25T18:01:40.735Z,42.64
2023-05-25T18:04:07.589Z,42.04
2023-05-25T18:06:34.647Z,42.74
2023-05-25T18:09:01.447Z,43.98
2023-05-25T18:11:32.312Z,44.22
2023-05-25T18:14:04.869Z,44.04
2023-05-25T18:16:31.762Z,46.48
2023-05-25T18:18:58.598Z,45.74
2023-05-25T18:21:25.370Z,46.41
2023-05-25T18:23:52.012Z,46.55
2023-05-25T18:26:18.501Z,47.12
2023-05-25T18:28:45.365Z,47.21
2023-05-25T18:31:12.369Z,47.70
2023-05-25T18:33:44.678Z,49.00
2023-05-25T18:36:11.612Z,48.91
2023-05-25T18:38:38.238Z,52.18
2023-05-25T18:41:05.026Z,50.31
2023-05-25T18:43:31.636Z,50.19
2023-05-25T18:45:58.230Z,50.23
2023-05-25T18:48:25.860Z,50.22
2023-05-25T18:50:52.511Z,51.73
2023-05-25T18:53:19.056Z,52.56
2023-05-25T18:55:45.930Z,52.23
2023-05-25T18:58:13.122Z,52.33
2023-05-25T19:00:40.204Z,52.02
2023-05-25T19:03:07.052Z,52.92
2023-05-25T19:05:33.907Z,55.76
2023-05-25T19:08:00.649Z,55.37
2023-05-25T19:10:27.666Z,57.24
2023-05-25T19:12:54.307Z,57.41
2023-05-25T19:15:21.162Z,58.16
2023-05-25T19:17:48.097Z,61.71
2023-05-25T19:20:18.214Z,62.49
2023-05-25T19:22:45.061Z,62.21
2023-05-25T19:25:11.841Z,61.60
2023-05-25T19:27:38.817Z,62.84
2023-05-25T19:30:05.994Z,65.49
2023-05-25T19:32:35.837Z,64.18
2023-05-25T19:35:02.640Z,66.88
2023-05-25T19:37:29.129Z,63.07
2023-05-25T19:39:55.683Z,66.54
2023-05-25T19:42:22.204Z,69.17
2023-05-25T19:44:48.768Z,71.13
2023-05-25T19:47:15.405Z,69.47
2023-05-25T19:49:42.720Z,72.65
2023-05-25T19:52:09.251Z,72.88
2023-05-25T19:54:35.924Z,73.84
2023-05-25T19:57:02.815Z,74.58
2023-05-25T19:59:30.227Z,76.71
2023-05-25T20:01:57.040Z,72.91
2023-05-25T20:04:23.804Z,72.02
2023-05-25T20:06:50.790Z,76.80
2023-05-25T20:09:17.720Z,73.35
2023-05-25T20:11:44.272Z,77.71
2023-05-25T20:14:10.788Z,77.14
2023-05-25T20:16:37.429Z,75.34
2023-05-25T20:19:07.311Z,72.98
2023-05-25T20:21:34.302Z,73.43
2023-05-25T20:24:01.262Z,74.61
2023-05-25T20:26:27.926Z,73.39
2023-05-25T20:28:54.459Z,75.10
2023-05-25T20:31:21.120Z,74.50
2023-05-25T20:33:47.737Z,78.29
2023-05-25T20:36:15.662Z,74.64
2023-05-25T20:38:45.092Z,78.77
2023-05-25T20:41:12.059Z,77.41
2023-05-25T20:43:38.559Z,77.96
2023-05-25T20:46:07.547Z,78.27
2023-05-25T20:48:34.237Z,79.00
2023-05-25T20:51:00.833Z,77.05
2023-05-25T20:53:27.385Z,76.03
2023-05-25T20:55:53.857Z,79.68
2023-05-25T20:58:20.396Z,79.33
2023-05-25T21:00:46.877Z,76.98
2023-05-25T21:03:13.435Z,79.90
2023-05-25T21:05:40.091Z,80.90
2023-05-25T21:08:06.781Z,78.47
2023-05-25T21:10:33.361Z,80.09
2023-05-25T21:12:59.899Z,80.18
2023-05-25T21:15:26.936Z,77.36
2023-05-25T21:17:53.532Z,80.44
2023-05-25T21:20:20.526Z,81.30
2023-05-25T21:22:47.123Z,82.60
2023-05-25T21:25:13.649Z,79.08
2023-05-25T21:27:40.385Z,81.18
2023-05-25T21:30:07.509Z,81.17
2023-05-25T21:32:34.061Z,80.60
2023-05-25T21:35:00.742Z,79.33
2023-05-25T21:37:28.037Z,83.19
2023-05-25T21:39:54.548Z,82.59
2023-05-25T21:42:21.062Z,83.56
2023-05-25T21:44:47.623Z,83.99
2023-05-25T21:47:14.311Z,82.58
2023-05-25T21:49:40.966Z,84.00
2023-05-25T21:52:18.068Z,84.07
2023-05-25T21:54:44.575Z,83.23
2023-05-25T21:57:11.084Z,85.37
2023-05-25T21:59:37.589Z,86.36
2023-05-25T22:02:04.385Z,87.60
2023-05-25T22:04:31.014Z,87.89
2023-05-25T22:06:57.695Z,88.14
2023-05-25T22:09:24.207Z,87.05
2023-05-25T22:11:50.770Z,88.38
2023-05-25T22:14:17.274Z,89.25
2023-05-25T22:16:43.802Z,91.42
2023-05-25T22:19:10.775Z,91.41
2023-05-25T22:21:37.872Z,92.42
2023-05-25T22:24:04.499Z,92.69
2023-05-25T22:26:30.991Z,92.83
2023-05-25T22:28:57.532Z,92.01
2023-05-25T22:31:25.647Z,92.48
2023-05-25T22:33:52.274Z,92.81
2023-05-25T22:36:18.800Z,93.75
2023-05-25T22:38:46.609Z,93.14
2023-05-25T22:41:13.110Z,93.13
2023-05-25T22:43:39.612Z,92.75
2023-05-25T22:46:06.160Z,94.95
2023-05-25T22:48:32.708Z,95.67
2023-05-25T22:50:59.174Z,96.78
2023-05-25T22:53:25.665Z,98.45
2023-05-25T22:55:52.318Z,97.39
2023-05-25T22:58:19.014Z,98.81
2023-05-25T23:00:45.660Z,98.83
2023-05-25T23:03:12.292Z,98.91
2023-05-25T23:05:38.977Z,98.62
2023-05-25T23:08:05.672Z,100.00
2023-05-25T23:10:32.194Z,100.00
2023-05-25T23:12:58.674Z,100.00
2023-05-25T23:15:25.191Z,98.49
2023-05-25T23:17:51.799Z,99.81
2023-05-25T23:20:18.448Z,98.52
2023-05-25T23:22:44.967Z,96.77
2023-05-25T23:25:11.491Z,98.97
2023-05-25T23:27:38.003Z,99.02
2023-05-25T23:30:06.735Z,99.67
2023-05-25T23:32:33.452Z,100.00
2023-05-25T23:34:59.975Z,100.00
2023-05-25T23:37:28.299Z,100.00
2023-05-25T23:39:54.861Z,100.00
2023-05-25T23:42:21.482Z,100.00
2023-05-25T23:44:48.004Z,100.00
2023-05-25T23:47:14.656Z,100.00
2023-05-25T23:49:41.153Z,100.00
2023-05-25T23:52:07.829Z,100.00
2023-05-25T23:54:34.421Z,100.00
2023-05-25T23:57:01.167Z,100.00
2023-05-25T23:59:27.673Z,100.00
